Lorenzo, Texas
Current Conditions -  °F | °C
As of 9:53 PM on Wednesday 17 Dec 2014 (Local Time) from KLBB Reporting Station
Haze Haze  
Wind Chill: 37°   Ceiling: Unl
Heat Index: 43°   Visibility: 6mi
Dew Point: 41°   Wind: 10mph
Humidity: 93%   Direction: 140°SE
Pressure: 30.01"   Gusts: NA
Location:  33.67°N, 101.54°W
Report Text: KLBB 180353Z 14009KT 6SM BR FEW003 06/05 A3001 RMK AO2 SLP155 T00610050
Loading
Personal Weather Stations






























Interactive Weather Map New forecast layout! Learn more

10-Day Weather Forecast

Advertisements
Track Severe Weather on mobile